createdAt,value
2019-05-11T00:00:52.484Z,10.20
2019-05-11T00:05:58.434Z,10.20
2019-05-11T00:11:03.651Z,10.10
2019-05-11T00:16:08.727Z,9.90
2019-05-11T00:21:13.717Z,9.80
2019-05-11T00:26:18.770Z,9.70
2019-05-11T00:31:23.928Z,9.60
2019-05-11T00:36:28.898Z,9.50
2019-05-11T00:41:33.911Z,9.40
2019-05-11T00:46:38.855Z,9.30
2019-05-11T00:51:43.839Z,9.30
2019-05-11T00:56:48.903Z,9.30
2019-05-11T01:01:53.924Z,9.30
2019-05-11T01:06:59.036Z,9.20
2019-05-11T01:12:04.118Z,9.10
2019-05-11T01:17:10.277Z,9.10
2019-05-11T01:22:15.499Z,9.10
2019-05-11T01:27:20.558Z,9.00
2019-05-11T01:32:25.658Z,8.90
2019-05-11T01:37:30.748Z,8.80
2019-05-11T01:42:35.803Z,8.70
2019-05-11T01:47:40.936Z,8.60
2019-05-11T01:52:45.854Z,8.50
2019-05-11T01:57:50.951Z,8.50
2019-05-11T02:02:56.023Z,8.40
2019-05-11T02:08:02.621Z,8.40
2019-05-11T02:13:07.731Z,8.40
2019-05-11T02:18:12.882Z,8.30
2019-05-11T02:23:17.859Z,8.30
2019-05-11T02:28:22.838Z,8.20
2019-05-11T02:33:27.885Z,8.20
2019-05-11T02:38:32.859Z,8.10
2019-05-11T02:43:37.955Z,8.00
2019-05-11T02:49:15.757Z,8.00
2019-05-11T02:54:39.332Z,7.90
2019-05-11T02:59:44.371Z,7.90
2019-05-11T03:04:49.325Z,7.60
2019-05-11T03:09:54.430Z,7.40
2019-05-11T03:14:59.391Z,7.30
2019-05-11T03:20:06.044Z,7.30
2019-05-11T03:25:11.161Z,7.50
2019-05-11T03:30:16.378Z,7.60
2019-05-11T03:35:21.447Z,7.90
2019-05-11T03:40:26.524Z,8.10
2019-05-11T03:45:31.649Z,8.20
2019-05-11T03:50:36.744Z,8.20
2019-05-11T03:55:41.819Z,8.20
2019-05-11T04:00:46.864Z,8.20
2019-05-11T04:05:52.014Z,8.20
2019-05-11T04:10:56.965Z,8.20
2019-05-11T04:16:01.951Z,8.30
2019-05-11T04:21:06.991Z,8.30
2019-05-11T04:26:12.015Z,8.30
2019-05-11T04:31:16.963Z,8.40
2019-05-11T04:36:22.013Z,8.40
2019-05-11T04:41:27.059Z,8.40
2019-05-11T04:46:33.184Z,8.50
2019-05-11T04:51:38.197Z,8.60
2019-05-11T04:56:43.387Z,8.70
2019-05-11T05:01:48.429Z,8.80
2019-05-11T05:06:59.922Z,8.90
2019-05-11T05:12:00.046Z,9.00
2019-05-11T05:17:05.106Z,9.10
2019-05-11T05:22:10.087Z,9.30
2019-05-11T05:27:15.135Z,9.50
2019-05-11T05:32:20.111Z,9.50
2019-05-11T05:37:25.285Z,9.70
2019-05-11T05:42:30.323Z,9.80
2019-05-11T05:47:35.381Z,9.90
2019-05-11T05:52:40.324Z,9.90
2019-05-11T05:57:45.299Z,10.10
2019-05-11T06:02:50.435Z,10.10
2019-05-11T06:07:55.388Z,10.30
2019-05-11T06:13:00.414Z,10.50
2019-05-11T06:18:05.610Z,10.60
2019-05-11T06:23:10.667Z,10.70
2019-05-11T06:28:15.715Z,10.80
2019-05-11T06:33:20.769Z,11.00
2019-05-11T06:38:25.713Z,11.00
2019-05-11T06:43:30.735Z,11.30
2019-05-11T06:48:36.239Z,11.60
2019-05-11T06:53:41.429Z,11.70
2019-05-11T06:58:46.394Z,11.70
2019-05-11T07:03:51.367Z,11.80
2019-05-11T07:08:56.419Z,11.70
2019-05-11T07:14:18.697Z,11.70
2019-05-11T07:19:08.028Z,11.90
2019-05-11T07:24:13.118Z,12.00
2019-05-11T07:29:18.351Z,12.10
2019-05-11T07:34:23.408Z,12.40
2019-05-11T07:39:28.659Z,13.20
2019-05-11T07:44:38.298Z,13.80
2019-05-11T07:49:40.204Z,14.20
2019-05-11T07:54:51.824Z,14.30
2019-05-11T07:59:52.076Z,14.70
2019-05-11T08:04:58.642Z,14.30
2019-05-11T08:10:08.205Z,14.10
2019-05-11T08:15:13.994Z,14.10
2019-05-11T08:20:27.903Z,15.00
2019-05-11T08:25:32.918Z,15.60
2019-05-11T08:30:38.243Z,16.50
2019-05-11T08:35:43.320Z,16.40
2019-05-11T08:40:48.636Z,15.40
2019-05-11T08:45:53.595Z,15.10
2019-05-11T08:50:58.563Z,15.80
2019-05-11T08:56:03.660Z,17.30
2019-05-11T09:01:08.960Z,16.80
2019-05-11T09:06:14.086Z,15.50
2019-05-11T09:11:19.338Z,16.20
2019-05-11T09:16:24.276Z,17.30
2019-05-11T09:27:22.430Z,17.30
2019-05-11T09:32:42.130Z,16.80
2019-05-11T09:38:01.921Z,15.70
2019-05-11T09:43:21.923Z,16.40
2019-05-11T09:48:42.649Z,16.70
2019-05-11T09:59:38.503Z,17.00
2019-05-11T10:04:57.680Z,18.00
2019-05-11T10:10:14.938Z,17.80
2019-05-11T10:15:33.913Z,17.40
2019-05-11T10:20:53.939Z,17.70
2019-05-11T10:26:13.721Z,18.00
2019-05-11T10:31:28.462Z,18.10
2019-05-11T10:36:48.672Z,18.30
2019-05-11T10:42:17.862Z,18.50
2019-05-11T10:47:38.229Z,18.40
2019-05-11T11:03:48.543Z,19.00
2019-05-11T11:09:10.217Z,19.60
2019-05-11T11:14:28.870Z,19.30
2019-05-11T11:19:53.701Z,19.40
2019-05-11T11:25:13.189Z,19.40
2019-05-11T11:36:01.087Z,21.00
2019-05-11T11:41:22.411Z,20.80
2019-05-11T11:57:38.600Z,20.50
2019-05-11T12:02:58.800Z,20.90
2019-05-11T12:08:10.670Z,21.10
2019-05-11T12:13:29.869Z,21.00
2019-05-11T12:35:12.477Z,22.80
2019-05-11T12:46:00.743Z,23.20
2019-05-11T12:56:48.743Z,23.80
2019-05-11T13:01:59.215Z,23.40
2019-05-11T13:07:22.782Z,23.80
2019-05-11T13:12:43.093Z,23.80
2019-05-11T13:18:04.837Z,24.00
2019-05-11T13:23:27.638Z,23.90
2019-05-11T13:28:45.476Z,24.00
2019-05-11T13:34:05.670Z,23.60
2019-05-11T13:39:28.398Z,23.60
2019-05-11T13:50:17.731Z,23.40
2019-05-11T13:55:38.583Z,23.50
2019-05-11T14:01:08.095Z,22.90
2019-05-11T14:06:28.752Z,22.80
2019-05-11T14:17:03.471Z,22.80
2019-05-11T14:22:08.793Z,22.60
2019-05-11T14:27:13.801Z,22.60
2019-05-11T14:32:18.783Z,22.80
2019-05-11T14:37:23.867Z,22.60
2019-05-11T14:42:28.989Z,22.10
2019-05-11T14:47:33.941Z,21.90
2019-05-11T14:52:39.221Z,21.60
2019-05-11T14:57:44.233Z,21.50
2019-05-11T15:02:50.059Z,21.60
2019-05-11T15:07:55.203Z,21.60
2019-05-11T15:13:00.243Z,21.60
2019-05-11T15:18:05.372Z,21.50
2019-05-11T15:23:10.413Z,21.50
2019-05-11T15:28:15.519Z,21.00
2019-05-11T15:33:20.467Z,20.40
2019-05-11T15:38:25.519Z,20.40
2019-05-11T15:43:30.589Z,20.30
2019-05-11T15:48:52.810Z,20.00
2019-05-11T15:53:42.272Z,19.70
2019-05-11T15:58:48.712Z,19.60
2019-05-11T16:03:53.827Z,19.30
2019-05-11T16:08:58.843Z,19.20
2019-05-11T16:14:03.963Z,19.00
2019-05-11T16:19:14.707Z,18.90
2019-05-11T16:24:15.643Z,18.70
2019-05-11T16:29:20.620Z,18.40
2019-05-11T16:34:27.632Z,18.10
2019-05-11T16:39:32.353Z,18.00
2019-05-11T16:44:37.851Z,18.00
2019-05-11T16:49:42.951Z,18.00
2019-05-11T16:54:47.931Z,17.90
2019-05-11T16:59:52.915Z,17.80
2019-05-11T17:04:58.162Z,17.60
2019-05-11T17:10:04.590Z,17.50
2019-05-11T17:15:09.894Z,17.30
2019-05-11T17:20:15.183Z,17.10
2019-05-11T17:25:20.161Z,16.90
2019-05-11T17:30:25.172Z,16.80
2019-05-11T17:35:30.147Z,16.70
2019-05-11T17:40:37.669Z,16.60
2019-05-11T17:45:41.918Z,16.40
2019-05-11T17:50:47.032Z,16.20
2019-05-11T17:55:51.979Z,16.10
2019-05-11T18:00:58.838Z,16.00
2019-05-11T18:06:03.867Z,15.90
2019-05-11T18:11:08.935Z,15.80
2019-05-11T18:16:14.055Z,15.60
2019-05-11T18:21:19.086Z,15.50
2019-05-11T18:26:24.020Z,15.20
2019-05-11T18:31:29.071Z,15.10
2019-05-11T18:36:34.015Z,15.10
2019-05-11T18:41:39.273Z,15.00
2019-05-11T18:46:44.515Z,14.90
2019-05-11T18:51:49.563Z,14.80
2019-05-11T18:56:54.607Z,14.70
2019-05-11T19:01:59.656Z,14.60
2019-05-11T19:07:14.275Z,14.60
2019-05-11T19:12:11.440Z,14.50
2019-05-11T19:17:18.165Z,14.50
2019-05-11T19:22:23.237Z,14.30
2019-05-11T19:27:29.258Z,14.30
2019-05-11T19:32:34.291Z,14.20
2019-05-11T19:37:39.619Z,14.10
2019-05-11T19:42:53.753Z,14.00
2019-05-11T19:48:00.128Z,14.00
2019-05-11T19:53:05.187Z,13.90
2019-05-11T19:58:10.286Z,13.80
2019-05-11T20:03:15.338Z,13.70
2019-05-11T20:08:20.589Z,13.50
2019-05-11T20:13:25.605Z,13.50
2019-05-11T20:18:30.704Z,13.50
2019-05-11T20:23:37.563Z,13.40
2019-05-11T20:28:42.398Z,13.30
2019-05-11T20:33:47.755Z,13.30
2019-05-11T20:38:53.878Z,13.20
2019-05-11T20:43:58.929Z,13.20
2019-05-11T20:49:03.972Z,13.20
2019-05-11T20:54:09.083Z,13.30
2019-05-11T20:59:14.211Z,13.30
2019-05-11T21:04:19.182Z,13.20
2019-05-11T21:09:24.222Z,13.10
2019-05-11T21:14:29.279Z,13.10
2019-05-11T21:19:34.290Z,13.00
2019-05-11T21:24:39.202Z,13.00
2019-05-11T21:29:44.159Z,12.90
2019-05-11T21:34:49.175Z,12.80
2019-05-11T21:39:54.226Z,12.80
2019-05-11T21:44:59.179Z,12.70
2019-05-11T21:50:04.692Z,12.60
2019-05-11T21:55:09.977Z,12.60
2019-05-11T22:00:15.327Z,12.60
2019-05-11T22:05:21.966Z,12.60
2019-05-11T22:10:28.351Z,12.60
2019-05-11T22:15:33.714Z,12.60
2019-05-11T22:20:40.915Z,12.60
2019-05-11T22:25:47.552Z,12.60
2019-05-11T22:30:53.133Z,12.50
2019-05-11T22:35:58.885Z,12.50
2019-05-11T22:41:03.946Z,12.40
2019-05-11T22:46:08.995Z,12.30
2019-05-11T22:51:13.995Z,12.20
2019-05-11T22:56:20.069Z,12.00
2019-05-11T23:01:28.275Z,11.90
2019-05-11T23:06:32.959Z,11.80
2019-05-11T23:11:38.045Z,11.60
2019-05-11T23:16:44.178Z,11.60
2019-05-11T23:21:49.520Z,11.50
2019-05-11T23:26:54.491Z,11.40
2019-05-11T23:32:00.599Z,11.30
2019-05-11T23:37:07.868Z,11.40
2019-05-11T23:42:12.343Z,11.30
2019-05-11T23:47:19.999Z,11.30
2019-05-11T23:52:23.974Z,11.20
2019-05-11T23:57:29.098Z,11.20
